createdAt,value
2023-05-13T00:01:02.294Z,4.68
2023-05-13T00:03:42.744Z,4.93
2023-05-13T00:06:29.321Z,5.18
2023-05-13T00:09:10.397Z,4.82
2023-05-13T00:11:57.300Z,4.75
2023-05-13T00:14:37.344Z,5.00
2023-05-13T00:17:24.303Z,5.05
2023-05-13T00:20:04.367Z,4.85
2023-05-13T00:22:51.325Z,4.60
2023-05-13T00:25:31.338Z,5.20
2023-05-13T00:28:21.299Z,5.18
2023-05-13T00:31:01.363Z,4.95
2023-05-13T00:33:48.320Z,4.70
2023-05-13T00:36:28.778Z,4.80
2023-05-13T00:39:15.318Z,4.80
2023-05-13T00:41:55.489Z,4.93
2023-05-13T00:44:42.287Z,4.78
2023-05-13T00:47:23.360Z,4.90
2023-05-13T00:50:10.324Z,4.75
2023-05-13T00:52:50.998Z,4.80
2023-05-13T00:55:37.300Z,5.10
2023-05-13T00:58:18.351Z,5.10
2023-05-13T01:01:27.358Z,4.72
2023-05-13T01:04:31.290Z,4.90
2023-05-13T01:07:33.341Z,5.20
2023-05-13T01:10:33.339Z,5.13
2023-05-13T01:13:25.308Z,5.40
2023-05-13T01:16:13.451Z,5.03
2023-05-13T01:19:05.353Z,5.50
2023-05-13T01:21:45.393Z,5.00
2023-05-13T01:24:32.375Z,4.90
2023-05-13T01:27:13.801Z,5.28
2023-05-13T01:30:02.293Z,5.40
2023-05-13T01:32:50.345Z,5.40
2023-05-13T01:35:39.331Z,5.40
2023-05-13T01:38:35.335Z,5.53
2023-05-13T01:41:29.292Z,5.57
2023-05-13T01:44:09.923Z,5.65
2023-05-13T01:46:58.366Z,5.07
2023-05-13T01:49:45.378Z,5.50
2023-05-13T01:55:06.194Z,4.82
2023-05-13T01:57:54.313Z,5.70
2023-05-13T02:00:41.325Z,6.13
2023-05-13T02:03:21.541Z,5.60
2023-05-13T02:06:08.313Z,6.07
2023-05-13T02:08:48.374Z,5.53
2023-05-13T02:11:35.304Z,5.57
2023-05-13T02:14:22.356Z,5.75
2023-05-13T02:17:09.392Z,5.47
2023-05-13T02:19:49.296Z,5.97
2023-05-13T02:22:36.303Z,6.25
2023-05-13T02:25:23.320Z,6.07
2023-05-13T02:28:10.314Z,6.53
2023-05-13T02:30:50.356Z,5.57
2023-05-13T02:33:37.307Z,6.45
2023-05-13T02:39:05.070Z,6.20
2023-05-13T02:41:51.301Z,5.90
2023-05-13T02:44:41.317Z,6.00
2023-05-13T02:47:22.783Z,6.20
2023-05-13T02:50:16.370Z,6.10
2023-05-13T02:52:56.361Z,5.35
2023-05-13T02:55:45.289Z,6.72
2023-05-13T02:58:25.364Z,6.13
2023-05-13T03:01:12.340Z,6.28
2023-05-13T03:03:52.371Z,6.35
2023-05-13T03:06:39.312Z,6.32
2023-05-13T03:09:19.390Z,6.47
2023-05-13T03:12:06.315Z,6.05
2023-05-13T03:14:46.452Z,7.25
2023-05-13T03:17:33.393Z,6.75
2023-05-13T03:20:14.410Z,6.53
2023-05-13T03:23:01.336Z,6.65
2023-05-13T03:25:42.348Z,7.07
2023-05-13T03:28:29.302Z,6.78
2023-05-13T03:31:16.348Z,6.75
2023-05-13T03:34:03.354Z,7.78
2023-05-13T03:36:44.324Z,6.85
2023-05-13T03:39:31.600Z,7.55
2023-05-13T03:42:18.331Z,7.07
2023-05-13T03:45:01.394Z,6.95
2023-05-13T03:47:50.414Z,7.40
2023-05-13T03:50:31.364Z,7.75
2023-05-13T03:53:18.336Z,7.65
2023-05-13T03:56:00.586Z,7.40
2023-05-13T03:58:47.324Z,7.97
2023-05-13T04:01:28.438Z,7.70
2023-05-13T04:04:15.314Z,8.57
2023-05-13T04:07:02.321Z,8.13
2023-05-13T04:09:42.854Z,8.15
2023-05-13T04:12:29.345Z,8.23
2023-05-13T04:17:56.406Z,8.35
2023-05-13T04:20:47.336Z,8.00
2023-05-13T04:23:27.541Z,8.05
2023-05-13T04:26:15.316Z,7.72
2023-05-13T04:28:55.534Z,8.15
2023-05-13T04:31:42.362Z,7.90
2023-05-13T04:34:22.413Z,8.45
2023-05-13T04:37:09.321Z,8.10
2023-05-13T04:39:59.337Z,8.10
2023-05-13T04:42:39.799Z,8.05
2023-05-13T04:45:26.322Z,8.50
2023-05-13T04:48:07.978Z,8.50
2023-05-13T04:50:59.331Z,7.97
2023-05-13T04:53:39.837Z,6.82
2023-05-13T04:56:27.319Z,6.75
2023-05-13T04:59:16.310Z,7.18
2023-05-13T05:01:56.455Z,6.13
2023-05-13T05:04:43.335Z,6.85
2023-05-13T05:07:31.352Z,6.13
2023-05-13T05:10:11.826Z,7.05
2023-05-13T05:13:04.379Z,6.60
2023-05-13T05:15:44.845Z,6.55
2023-05-13T05:18:31.436Z,6.32
2023-05-13T05:21:12.306Z,6.47
2023-05-13T05:23:59.340Z,6.10
2023-05-13T05:26:46.355Z,6.50
2023-05-13T05:29:26.471Z,6.82
2023-05-13T05:32:14.320Z,6.60
2023-05-13T05:35:01.324Z,7.05
2023-05-13T05:37:41.851Z,7.10
2023-05-13T05:40:28.337Z,6.20
2023-05-13T05:43:10.966Z,6.55
2023-05-13T05:45:57.385Z,5.88
2023-05-13T05:48:37.894Z,6.75
2023-05-13T05:51:24.358Z,6.30
2023-05-13T05:54:06.834Z,6.65
2023-05-13T05:56:53.352Z,6.50
2023-05-13T05:59:33.815Z,6.53
2023-05-13T06:02:21.354Z,6.72
2023-05-13T06:05:01.817Z,6.35
2023-05-13T06:07:50.381Z,5.70
2023-05-13T06:10:30.924Z,6.60
2023-05-13T06:13:17.337Z,6.65
2023-05-13T06:15:57.892Z,6.70
2023-05-13T06:18:44.430Z,7.03
2023-05-13T06:21:24.881Z,6.80
2023-05-13T06:24:11.326Z,6.10
2023-05-13T06:26:52.857Z,6.65
2023-05-13T06:29:39.334Z,6.97
2023-05-13T06:32:26.416Z,5.95
2023-05-13T06:35:06.331Z,6.40
2023-05-13T06:37:46.809Z,6.45
2023-05-13T06:40:33.370Z,5.85
2023-05-13T06:43:20.488Z,6.13
2023-05-13T06:46:04.341Z,6.97
2023-05-13T06:48:53.617Z,6.10
2023-05-13T06:51:35.428Z,6.40
2023-05-13T06:54:23.182Z,6.40
2023-05-13T06:57:02.378Z,6.55
2023-05-13T06:59:51.407Z,6.07
2023-05-13T07:02:31.350Z,6.38
2023-05-13T07:05:12.692Z,5.63
2023-05-13T07:08:00.325Z,6.50
2023-05-13T07:10:40.846Z,6.35
2023-05-13T07:13:27.393Z,6.28
2023-05-13T07:16:14.710Z,6.15
2023-05-13T07:18:54.445Z,6.15
2023-05-13T07:21:42.367Z,6.13
2023-05-13T07:24:29.387Z,5.70
2023-05-13T07:27:09.829Z,6.25
2023-05-13T07:29:56.400Z,6.07
2023-05-13T07:32:37.106Z,6.20
2023-05-13T07:35:24.548Z,5.93
2023-05-13T07:38:04.995Z,5.50
2023-05-13T07:40:51.346Z,5.88
2023-05-13T07:43:40.719Z,5.78
2023-05-13T07:46:20.365Z,5.55
2023-05-13T07:49:00.848Z,5.13
2023-05-13T07:51:47.374Z,5.68
2023-05-13T07:54:35.336Z,4.97
2023-05-13T07:57:22.349Z,5.20
2023-05-13T08:00:09.343Z,5.10
2023-05-13T08:02:50.606Z,5.70
2023-05-13T08:05:37.350Z,4.75
2023-05-13T08:08:17.389Z,5.63
2023-05-13T08:11:04.384Z,5.00
2023-05-13T08:13:51.373Z,4.78
2023-05-13T08:16:40.412Z,4.25
2023-05-13T08:19:28.444Z,4.68
2023-05-13T08:22:08.914Z,4.63
2023-05-13T08:24:55.396Z,4.43
2023-05-13T08:27:35.801Z,4.68
2023-05-13T08:30:22.362Z,4.60
2023-05-13T08:33:09.385Z,4.95
2023-05-13T08:35:49.414Z,4.75
2023-05-13T08:38:36.384Z,4.70
2023-05-13T08:41:21.933Z,4.43
2023-05-13T08:44:13.396Z,4.30
2023-05-13T08:47:06.371Z,4.38
2023-05-13T08:49:53.408Z,4.53
2023-05-13T08:52:34.474Z,4.32
2023-05-13T08:55:22.686Z,4.85
2023-05-13T08:58:02.463Z,3.97
2023-05-13T09:00:49.383Z,4.47
2023-05-13T09:03:29.533Z,3.70
2023-05-13T09:06:16.363Z,4.22
2023-05-13T09:08:56.524Z,4.30
2023-05-13T09:11:44.640Z,4.28
2023-05-13T09:14:26.449Z,4.00
2023-05-13T09:17:14.369Z,4.47
2023-05-13T09:19:54.517Z,4.00
2023-05-13T09:22:41.362Z,4.40
2023-05-13T09:25:26.344Z,4.10
2023-05-13T09:28:14.418Z,4.28
2023-05-13T09:31:01.468Z,4.13
2023-05-13T09:33:59.423Z,4.10
2023-05-13T09:36:40.470Z,3.95
2023-05-13T09:39:27.350Z,3.97
2023-05-13T09:42:08.480Z,4.10
2023-05-13T09:44:56.362Z,4.38
2023-05-13T09:47:37.104Z,4.32
2023-05-13T09:50:23.644Z,4.18
2023-05-13T09:53:03.515Z,4.28
2023-05-13T09:55:58.385Z,4.25
2023-05-13T09:58:38.445Z,3.97
2023-05-13T10:01:28.490Z,4.00
2023-05-13T10:04:08.889Z,4.03
2023-05-13T10:06:56.399Z,4.38
2023-05-13T10:09:42.431Z,3.90
2023-05-13T10:12:31.429Z,4.00
2023-05-13T10:15:12.500Z,4.15
2023-05-13T10:18:00.461Z,4.28
2023-05-13T10:20:40.462Z,4.28
2023-05-13T10:23:29.439Z,3.92
2023-05-13T10:26:10.464Z,4.22
2023-05-13T10:28:57.388Z,4.80
2023-05-13T10:31:37.500Z,4.63
2023-05-13T10:34:24.418Z,4.22
2023-05-13T10:37:30.374Z,4.72
2023-05-13T10:40:38.447Z,4.03
2023-05-13T10:43:33.388Z,4.43
2023-05-13T10:46:14.073Z,4.45
2023-05-13T10:49:08.385Z,4.47
2023-05-13T10:51:56.396Z,4.03
2023-05-13T10:54:43.521Z,4.40
2023-05-13T10:57:35.394Z,4.68
2023-05-13T11:00:24.471Z,4.20
2023-05-13T11:03:04.591Z,4.60
2023-05-13T11:05:53.405Z,4.50
2023-05-13T11:08:47.506Z,4.10
2023-05-13T11:11:39.406Z,3.97
2023-05-13T11:14:49.652Z,4.30
2023-05-13T11:17:37.453Z,3.92
2023-05-13T11:20:17.549Z,4.30
2023-05-13T11:23:05.392Z,4.10
2023-05-13T11:25:45.623Z,4.25
2023-05-13T11:29:14.411Z,4.43
2023-05-13T11:32:00.258Z,4.10
2023-05-13T11:34:58.418Z,4.20
2023-05-13T11:37:39.464Z,4.13
2023-05-13T11:40:33.464Z,4.03
2023-05-13T11:43:26.462Z,4.10
2023-05-13T11:46:09.463Z,4.10
2023-05-13T11:48:49.863Z,4.10
2023-05-13T11:51:38.425Z,4.15
2023-05-13T11:54:18.897Z,3.97
2023-05-13T11:57:05.468Z,3.67
2023-05-13T11:59:55.268Z,4.20
2023-05-13T12:02:47.501Z,3.75
2023-05-13T12:05:34.486Z,3.70
2023-05-13T12:08:15.676Z,3.70
2023-05-13T12:11:02.430Z,4.15
2023-05-13T12:13:49.434Z,4.00
2023-05-13T12:16:30.160Z,3.83
2023-05-13T12:19:20.430Z,3.65
2023-05-13T12:22:04.668Z,3.50
2023-05-13T12:24:52.438Z,3.47
2023-05-13T12:27:39.444Z,3.72
2023-05-13T12:30:22.597Z,3.67
2023-05-13T12:33:11.452Z,3.42
2023-05-13T12:36:00.456Z,3.55
2023-05-13T12:38:59.835Z,3.40
2023-05-13T12:41:55.463Z,3.30
2023-05-13T12:44:42.484Z,3.67
2023-05-13T12:47:26.480Z,3.70
2023-05-13T12:50:14.551Z,3.70
2023-05-13T12:52:54.428Z,3.67
2023-05-13T12:55:39.958Z,3.92
2023-05-13T12:58:26.456Z,3.70
2023-05-13T13:01:06.971Z,3.53
2023-05-13T13:03:53.642Z,3.35
2023-05-13T13:06:40.458Z,3.40
2023-05-13T13:09:27.480Z,3.60
2023-05-13T13:12:14.576Z,3.75
2023-05-13T13:14:55.518Z,3.58
2023-05-13T13:17:35.981Z,3.80
2023-05-13T13:20:22.441Z,4.10
2023-05-13T13:23:09.449Z,3.80
2023-05-13T13:25:49.538Z,3.60
2023-05-13T13:28:38.466Z,3.80
2023-05-13T13:31:18.569Z,4.05
2023-05-13T13:34:10.454Z,3.70
2023-05-13T13:36:50.588Z,3.90
2023-05-13T13:39:37.443Z,3.70
2023-05-13T13:42:17.509Z,4.03
2023-05-13T13:45:04.443Z,3.95
2023-05-13T13:47:45.024Z,3.75
2023-05-13T13:50:31.446Z,3.70
2023-05-13T13:53:11.580Z,3.85
2023-05-13T13:55:58.464Z,3.88
2023-05-13T13:58:38.592Z,3.28
2023-05-13T14:01:26.517Z,3.53
2023-05-13T14:04:26.110Z,3.65
2023-05-13T14:07:12.490Z,3.40
2023-05-13T14:09:52.580Z,3.72
2023-05-13T14:12:39.443Z,3.55
2023-05-13T14:15:26.440Z,3.50
2023-05-13T14:18:16.457Z,3.53
2023-05-13T14:20:56.618Z,3.58
2023-05-13T14:23:44.449Z,3.60
2023-05-13T14:26:31.481Z,3.42
2023-05-13T14:29:18.507Z,3.55
2023-05-13T14:31:58.464Z,3.60
2023-05-13T14:34:46.168Z,3.83
2023-05-13T14:37:25.465Z,3.58
2023-05-13T14:40:13.470Z,3.63
2023-05-13T14:43:00.464Z,3.10
2023-05-13T14:45:47.521Z,3.60
2023-05-13T14:48:28.500Z,3.30
2023-05-13T14:51:10.561Z,3.83
2023-05-13T14:53:57.451Z,3.70
2023-05-13T14:56:44.449Z,3.60
2023-05-13T14:59:24.582Z,3.22
2023-05-13T15:02:11.524Z,3.42
2023-05-13T15:05:01.452Z,3.60
2023-05-13T15:07:48.473Z,3.40
2023-05-13T15:10:35.448Z,3.35
2023-05-13T15:13:22.547Z,3.47
2023-05-13T15:16:02.544Z,3.50
2023-05-13T15:18:49.492Z,3.60
2023-05-13T15:21:29.589Z,3.55
2023-05-13T15:24:16.452Z,3.58
2023-05-13T15:27:03.462Z,3.35
2023-05-13T15:29:50.469Z,2.90
2023-05-13T15:32:37.540Z,3.53
2023-05-13T15:35:24.464Z,3.67
2023-05-13T15:38:04.642Z,3.60
2023-05-13T15:40:53.512Z,3.90
2023-05-13T15:43:40.456Z,3.92
2023-05-13T15:46:27.658Z,3.78
2023-05-13T15:49:08.492Z,3.75
2023-05-13T15:51:48.978Z,4.07
2023-05-13T15:54:35.528Z,4.05
2023-05-13T15:57:18.128Z,4.10
2023-05-13T16:00:04.475Z,3.50
2023-05-13T16:02:45.061Z,4.25
2023-05-13T16:05:31.487Z,4.72
2023-05-13T16:08:11.955Z,4.63
2023-05-13T16:10:58.501Z,4.78
2023-05-13T16:13:39.994Z,4.75
2023-05-13T16:16:26.605Z,4.45
2023-05-13T16:19:08.397Z,4.10
2023-05-13T16:21:55.514Z,4.72
2023-05-13T16:24:42.478Z,4.88
2023-05-13T16:27:22.522Z,4.53
2023-05-13T16:30:11.517Z,4.47
2023-05-13T16:32:54.156Z,4.60
2023-05-13T16:35:48.474Z,4.70
2023-05-13T16:38:36.492Z,4.63
2023-05-13T16:41:23.480Z,4.40
2023-05-13T16:44:10.648Z,4.93
2023-05-13T16:46:50.484Z,4.68
2023-05-13T16:49:30.976Z,4.65
2023-05-13T16:52:21.483Z,4.38
2023-05-13T16:55:08.496Z,4.60
2023-05-13T16:57:55.483Z,4.80
2023-05-13T17:00:42.854Z,4.55
2023-05-13T17:03:22.701Z,4.40
2023-05-13T17:06:03.170Z,4.20
2023-05-13T17:08:49.478Z,4.25
2023-05-13T17:11:29.997Z,4.65
2023-05-13T17:14:17.478Z,4.90
2023-05-13T17:17:04.566Z,4.72
2023-05-13T17:19:51.497Z,4.93
2023-05-13T17:22:32.071Z,4.40
2023-05-13T17:25:19.547Z,4.43
2023-05-13T17:28:09.823Z,4.35
2023-05-13T17:30:49.540Z,5.00
2023-05-13T17:33:29.978Z,4.53
2023-05-13T17:36:16.506Z,4.50
2023-05-13T17:38:56.996Z,4.70
2023-05-13T17:41:43.510Z,4.53
2023-05-13T17:44:37.550Z,4.72
2023-05-13T17:47:24.537Z,4.10
2023-05-13T17:50:11.513Z,4.70
2023-05-13T17:52:58.512Z,4.60
2023-05-13T17:55:38.608Z,4.30
2023-05-13T17:58:25.534Z,4.57
2023-05-13T18:01:05.633Z,4.90
2023-05-13T18:03:52.500Z,4.55
2023-05-13T18:06:34.657Z,4.68
2023-05-13T18:09:21.502Z,4.72
2023-05-13T18:12:03.177Z,4.40
2023-05-13T18:14:49.545Z,4.80
2023-05-13T18:17:29.678Z,4.65
2023-05-13T18:20:16.487Z,4.53
2023-05-13T18:25:54.994Z,4.38
2023-05-13T18:28:35.607Z,4.47
2023-05-13T18:31:22.516Z,4.45
2023-05-13T18:34:09.541Z,4.85
2023-05-13T18:36:52.131Z,4.95
2023-05-13T18:39:38.501Z,4.22
2023-05-13T18:42:25.518Z,4.55
2023-05-13T18:45:13.627Z,4.80
2023-05-13T18:47:53.571Z,4.85
2023-05-13T18:50:33.988Z,4.38
2023-05-13T18:53:20.502Z,4.68
2023-05-13T18:56:01.000Z,4.55
2023-05-13T18:58:47.486Z,4.40
2023-05-13T19:01:28.189Z,4.68
2023-05-13T19:04:14.621Z,4.95
2023-05-13T19:06:55.028Z,4.70
2023-05-13T19:09:42.516Z,4.40
2023-05-13T19:12:29.550Z,4.75
2023-05-13T19:15:16.555Z,4.25
2023-05-13T19:17:57.133Z,4.88
2023-05-13T19:20:43.568Z,4.43
2023-05-13T19:23:23.968Z,4.40
2023-05-13T19:26:10.563Z,4.88
2023-05-13T19:28:50.989Z,4.90
2023-05-13T19:31:38.567Z,5.10
2023-05-13T19:34:19.154Z,4.90
2023-05-13T19:37:05.515Z,4.95
2023-05-13T19:39:52.522Z,4.93
2023-05-13T19:42:39.522Z,4.88
2023-05-13T19:45:27.624Z,4.95
2023-05-13T19:48:07.638Z,4.93
2023-05-13T19:50:47.989Z,4.93
2023-05-13T19:53:34.525Z,4.70
2023-05-13T19:56:21.765Z,5.07
2023-05-13T19:59:01.538Z,5.20
2023-05-13T20:01:48.553Z,4.70
2023-05-13T20:04:28.677Z,4.95
2023-05-13T20:07:22.545Z,4.40
2023-05-13T20:10:04.131Z,4.40
2023-05-13T20:12:50.564Z,4.90
2023-05-13T20:15:31.754Z,5.10
2023-05-13T20:18:18.603Z,4.93
2023-05-13T20:20:59.124Z,5.30
2023-05-13T20:23:45.511Z,5.28
2023-05-13T20:26:26.203Z,6.60
2023-05-13T20:29:12.566Z,6.70
2023-05-13T20:31:53.197Z,6.43
2023-05-13T20:34:39.561Z,6.57
2023-05-13T20:37:26.929Z,6.97
2023-05-13T20:40:06.531Z,6.53
2023-05-13T20:43:00.518Z,7.30
2023-05-13T20:45:47.586Z,7.13
2023-05-13T20:48:34.531Z,7.07
2023-05-13T20:51:15.028Z,7.25
2023-05-13T20:54:01.575Z,6.90
2023-05-13T20:56:42.497Z,7.15
2023-05-13T20:59:36.532Z,7.57
2023-05-13T21:02:23.541Z,7.35
2023-05-13T21:05:10.584Z,7.90
2023-05-13T21:07:57.532Z,7.70
2023-05-13T21:10:37.680Z,8.05
2023-05-13T21:13:24.538Z,8.07
2023-05-13T21:16:11.626Z,7.80
2023-05-13T21:18:52.023Z,7.90
2023-05-13T21:21:38.545Z,8.52
2023-05-13T21:24:19.683Z,8.07
2023-05-13T21:27:06.537Z,7.90
2023-05-13T21:29:47.043Z,7.88
2023-05-13T21:32:33.580Z,8.32
2023-05-13T21:35:14.093Z,7.57
2023-05-13T21:38:08.721Z,8.02
2023-05-13T21:40:52.011Z,8.70
2023-05-13T21:43:38.547Z,8.65
2023-05-13T21:46:19.007Z,8.60
2023-05-13T21:49:05.728Z,7.35
2023-05-13T21:51:52.615Z,8.25
2023-05-13T21:54:32.530Z,8.25
2023-05-13T21:57:19.637Z,8.30
2023-05-13T21:59:59.590Z,8.68
2023-05-13T22:02:56.644Z,8.40
2023-05-13T22:05:48.524Z,8.85
2023-05-13T22:08:33.106Z,8.93
2023-05-13T22:11:19.552Z,8.88
2023-05-13T22:14:06.763Z,8.98
2023-05-13T22:16:54.532Z,8.90
2023-05-13T22:19:47.653Z,9.13
2023-05-13T22:22:27.545Z,9.00
2023-05-13T22:25:14.633Z,9.10
2023-05-13T22:27:55.562Z,9.02
2023-05-13T22:30:44.566Z,9.65
2023-05-13T22:33:25.537Z,9.18
2023-05-13T22:36:12.688Z,8.77
2023-05-13T22:38:52.549Z,9.38
2023-05-13T22:41:39.554Z,9.20
2023-05-13T22:44:33.545Z,9.13
2023-05-13T22:47:20.625Z,8.57
2023-05-13T22:50:00.578Z,8.57
2023-05-13T22:52:47.656Z,10.02
2023-05-13T22:55:27.604Z,8.88
2023-05-13T22:58:14.573Z,9.25
2023-05-13T23:00:55.678Z,9.50
2023-05-13T23:03:42.627Z,9.23
2023-05-13T23:06:22.615Z,9.30
2023-05-13T23:09:09.548Z,9.10
2023-05-13T23:11:49.621Z,9.82
2023-05-13T23:14:36.560Z,10.05
2023-05-13T23:17:23.592Z,9.70
2023-05-13T23:20:10.984Z,9.40
2023-05-13T23:22:50.555Z,10.43
2023-05-13T23:25:37.592Z,9.82
2023-05-13T23:28:17.570Z,9.93
2023-05-13T23:30:58.092Z,10.88
2023-05-13T23:33:44.580Z,10.35
2023-05-13T23:36:31.669Z,10.73
2023-05-13T23:39:11.539Z,10.15
2023-05-13T23:41:52.088Z,10.50
2023-05-13T23:44:38.551Z,10.27
2023-05-13T23:47:25.593Z,10.40
2023-05-13T23:50:05.737Z,10.38
2023-05-13T23:52:57.576Z,10.13
2023-05-13T23:55:37.640Z,10.27
2023-05-13T23:58:24.541Z,9.57
